sensor_id;sensor_type;location;lat;lon;timestamp;temperature;humidity
49765;DHT22;35657;51.204;-4.130;2023-04-24T00:00:15;9.70;99.90
49765;DHT22;35657;51.204;-4.130;2023-04-24T00:02:42;9.70;99.90
49765;DHT22;35657;51.204;-4.130;2023-04-24T00:05:12;9.70;99.90
49765;DHT22;35657;51.204;-4.130;2023-04-24T00:07:39;9.70;99.90
49765;DHT22;35657;51.204;-4.130;2023-04-24T00:10:06;9.80;99.90
49765;DHT22;35657;51.204;-4.130;2023-04-24T00:12:33;9.80;99.90
49765;DHT22;35657;51.204;-4.130;2023-04-24T00:14:59;9.80;99.90
49765;DHT22;35657;51.204;-4.130;2023-04-24T00:17:25;9.80;99.90
49765;DHT22;35657;51.204;-4.130;2023-04-24T00:19:50;9.80;99.90
49765;DHT22;35657;51.204;-4.130;2023-04-24T00:22:17;9.80;99.90
49765;DHT22;35657;51.204;-4.130;2023-04-24T00:24:42;9.80;99.90
49765;DHT22;35657;51.204;-4.130;2023-04-24T00:27:08;9.80;99.90
49765;DHT22;35657;51.204;-4.130;2023-04-24T00:29:34;9.80;99.90
49765;DHT22;35657;51.204;-4.130;2023-04-24T00:32:00;9.70;99.90
49765;DHT22;35657;51.204;-4.130;2023-04-24T00:34:26;9.60;99.90
49765;DHT22;35657;51.204;-4.130;2023-04-24T00:36:51;9.60;99.90
49765;DHT22;35657;51.204;-4.130;2023-04-24T00:39:20;9.50;99.90
49765;DHT22;35657;51.204;-4.130;2023-04-24T00:41:46;9.50;99.90
49765;DHT22;35657;51.204;-4.130;2023-04-24T00:44:14;9.50;99.90
49765;DHT22;35657;51.204;-4.130;2023-04-24T00:46:40;9.40;99.90
49765;DHT22;35657;51.204;-4.130;2023-04-24T00:49:06;9.40;99.90
49765;DHT22;35657;51.204;-4.130;2023-04-24T00:51:32;9.50;99.90
49765;DHT22;35657;51.204;-4.130;2023-04-24T00:54:01;9.50;99.90
49765;DHT22;35657;51.204;-4.130;2023-04-24T00:56:27;9.40;99.90
49765;DHT22;35657;51.204;-4.130;2023-04-24T00:58:53;9.40;99.90
49765;DHT22;35657;51.204;-4.130;2023-04-24T01:01:21;9.40;99.90
49765;DHT22;35657;51.204;-4.130;2023-04-24T01:03:48;9.40;99.90
49765;DHT22;35657;51.204;-4.130;2023-04-24T01:06:15;9.30;99.90
49765;DHT22;35657;51.204;-4.130;2023-04-24T01:08:41;9.30;99.90
49765;DHT22;35657;51.204;-4.130;2023-04-24T01:11:07;9.30;99.90
49765;DHT22;35657;51.204;-4.130;2023-04-24T01:13:34;9.30;99.90
49765;DHT22;35657;51.204;-4.130;2023-04-24T01:16:00;9.30;99.90
49765;DHT22;35657;51.204;-4.130;2023-04-24T01:18:29;9.30;99.90
49765;DHT22;35657;51.204;-4.130;2023-04-24T01:20:58;9.20;99.90
49765;DHT22;35657;51.204;-4.130;2023-04-24T01:23:24;9.20;99.90
49765;DHT22;35657;51.204;-4.130;2023-04-24T01:25:50;9.20;99.90
49765;DHT22;35657;51.204;-4.130;2023-04-24T01:28:17;9.20;99.90
49765;DHT22;35657;51.204;-4.130;2023-04-24T01:30:43;9.20;99.90
49765;DHT22;35657;51.204;-4.130;2023-04-24T01:33:09;9.20;99.90
49765;DHT22;35657;51.204;-4.130;2023-04-24T01:35:36;9.20;99.90
49765;DHT22;35657;51.204;-4.130;2023-04-24T01:38:03;9.20;99.90
49765;DHT22;35657;51.204;-4.130;2023-04-24T01:40:29;9.20;99.90
49765;DHT22;35657;51.204;-4.130;2023-04-24T01:42:54;9.10;99.90
49765;DHT22;35657;51.204;-4.130;2023-04-24T01:45:21;9.10;99.90
49765;DHT22;35657;51.204;-4.130;2023-04-24T01:47:47;9.20;99.90
49765;DHT22;35657;51.204;-4.130;2023-04-24T01:50:13;9.20;99.90
49765;DHT22;35657;51.204;-4.130;2023-04-24T01:52:39;9.20;99.90
49765;DHT22;35657;51.204;-4.130;2023-04-24T01:55:05;9.30;99.90
49765;DHT22;35657;51.204;-4.130;2023-04-24T01:57:32;9.30;99.90
49765;DHT22;35657;51.204;-4.130;2023-04-24T01:59:58;9.40;99.90
49765;DHT22;35657;51.204;-4.130;2023-04-24T02:02:24;9.50;99.90
49765;DHT22;35657;51.204;-4.130;2023-04-24T02:04:53;9.50;99.90
49765;DHT22;35657;51.204;-4.130;2023-04-24T02:07:18;9.50;99.90
49765;DHT22;35657;51.204;-4.130;2023-04-24T02:09:44;9.40;99.90
49765;DHT22;35657;51.204;-4.130;2023-04-24T02:12:10;9.50;99.90
49765;DHT22;35657;51.204;-4.130;2023-04-24T02:14:36;9.50;99.90
49765;DHT22;35657;51.204;-4.130;2023-04-24T02:17:01;9.50;99.90
49765;DHT22;35657;51.204;-4.130;2023-04-24T02:19:27;9.40;99.90
49765;DHT22;35657;51.204;-4.130;2023-04-24T02:21:53;9.30;99.90
49765;DHT22;35657;51.204;-4.130;2023-04-24T02:24:19;9.30;99.90
49765;DHT22;35657;51.204;-4.130;2023-04-24T02:26:44;9.40;99.90
49765;DHT22;35657;51.204;-4.130;2023-04-24T02:29:10;9.40;99.90
49765;DHT22;35657;51.204;-4.130;2023-04-24T02:31:36;9.40;99.90
49765;DHT22;35657;51.204;-4.130;2023-04-24T02:34:01;9.40;99.90
49765;DHT22;35657;51.204;-4.130;2023-04-24T02:36:27;9.40;99.90
49765;DHT22;35657;51.204;-4.130;2023-04-24T02:38:53;9.40;99.90
49765;DHT22;35657;51.204;-4.130;2023-04-24T02:41:19;9.40;99.90
49765;DHT22;35657;51.204;-4.130;2023-04-24T02:43:45;9.40;99.90
49765;DHT22;35657;51.204;-4.130;2023-04-24T02:46:10;9.40;99.90
49765;DHT22;35657;51.204;-4.130;2023-04-24T02:48:37;9.50;99.90
49765;DHT22;35657;51.204;-4.130;2023-04-24T02:51:03;9.50;99.90
49765;DHT22;35657;51.204;-4.130;2023-04-24T02:53:29;9.50;99.90
49765;DHT22;35657;51.204;-4.130;2023-04-24T02:55:56;9.50;99.90
49765;DHT22;35657;51.204;-4.130;2023-04-24T02:58:22;9.50;99.90
49765;DHT22;35657;51.204;-4.130;2023-04-24T03:00:48;9.50;99.90
49765;DHT22;35657;51.204;-4.130;2023-04-24T03:03:14;9.50;99.90
49765;DHT22;35657;51.204;-4.130;2023-04-24T03:05:42;9.50;99.90
49765;DHT22;35657;51.204;-4.130;2023-04-24T03:08:09;9.50;99.90
49765;DHT22;35657;51.204;-4.130;2023-04-24T03:10:35;9.50;99.90
49765;DHT22;35657;51.204;-4.130;2023-04-24T03:13:01;9.50;99.90
49765;DHT22;35657;51.204;-4.130;2023-04-24T03:15:27;9.40;99.90
49765;DHT22;35657;51.204;-4.130;2023-04-24T03:17:53;9.50;99.90
49765;DHT22;35657;51.204;-4.130;2023-04-24T03:20:18;9.50;99.90
49765;DHT22;35657;51.204;-4.130;2023-04-24T03:22:44;9.50;99.90
49765;DHT22;35657;51.204;-4.130;2023-04-24T03:25:10;9.50;99.90
49765;DHT22;35657;51.204;-4.130;2023-04-24T03:27:36;9.50;99.90
49765;DHT22;35657;51.204;-4.130;2023-04-24T03:30:02;9.50;99.90
49765;DHT22;35657;51.204;-4.130;2023-04-24T03:32:28;9.50;99.90
49765;DHT22;35657;51.204;-4.130;2023-04-24T03:34:54;9.50;99.90
49765;DHT22;35657;51.204;-4.130;2023-04-24T03:37:20;9.60;99.90
49765;DHT22;35657;51.204;-4.130;2023-04-24T03:39:45;9.60;99.90
49765;DHT22;35657;51.204;-4.130;2023-04-24T03:42:11;9.60;99.90
49765;DHT22;35657;51.204;-4.130;2023-04-24T03:44:37;9.60;99.90
49765;DHT22;35657;51.204;-4.130;2023-04-24T03:47:02;9.70;99.90
49765;DHT22;35657;51.204;-4.130;2023-04-24T03:49:28;9.70;99.90
49765;DHT22;35657;51.204;-4.130;2023-04-24T03:51:54;9.60;99.90
49765;DHT22;35657;51.204;-4.130;2023-04-24T03:54:19;9.70;99.90
49765;DHT22;35657;51.204;-4.130;2023-04-24T03:56:45;9.70;99.90
49765;DHT22;35657;51.204;-4.130;2023-04-24T03:59:11;9.70;99.90
49765;DHT22;35657;51.204;-4.130;2023-04-24T04:01:38;9.60;99.90
49765;DHT22;35657;51.204;-4.130;2023-04-24T04:04:05;9.60;99.90
49765;DHT22;35657;51.204;-4.130;2023-04-24T04:06:31;9.50;99.90
49765;DHT22;35657;51.204;-4.130;2023-04-24T04:08:59;9.50;99.90
49765;DHT22;35657;51.204;-4.130;2023-04-24T04:11:25;9.50;99.90
49765;DHT22;35657;51.204;-4.130;2023-04-24T04:13:51;9.50;99.90
49765;DHT22;35657;51.204;-4.130;2023-04-24T04:16:17;9.50;99.90
49765;DHT22;35657;51.204;-4.130;2023-04-24T04:18:43;9.50;99.90
49765;DHT22;35657;51.204;-4.130;2023-04-24T04:21:09;9.50;99.90
49765;DHT22;35657;51.204;-4.130;2023-04-24T04:23:35;9.50;99.90
49765;DHT22;35657;51.204;-4.130;2023-04-24T04:26:01;9.50;99.90
49765;DHT22;35657;51.204;-4.130;2023-04-24T04:28:29;9.60;99.90
49765;DHT22;35657;51.204;-4.130;2023-04-24T04:30:58;9.50;99.90
49765;DHT22;35657;51.204;-4.130;2023-04-24T04:33:24;9.50;99.90
49765;DHT22;35657;51.204;-4.130;2023-04-24T04:35:52;9.50;99.90
49765;DHT22;35657;51.204;-4.130;2023-04-24T04:38:19;9.50;99.90
49765;DHT22;35657;51.204;-4.130;2023-04-24T04:40:46;9.60;99.90
49765;DHT22;35657;51.204;-4.130;2023-04-24T04:43:12;9.60;99.90
49765;DHT22;35657;51.204;-4.130;2023-04-24T04:45:41;9.60;99.90
49765;DHT22;35657;51.204;-4.130;2023-04-24T04:48:09;9.60;99.90
49765;DHT22;35657;51.204;-4.130;2023-04-24T04:50:37;9.60;99.90
49765;DHT22;35657;51.204;-4.130;2023-04-24T04:53:03;9.60;99.90
49765;DHT22;35657;51.204;-4.130;2023-04-24T04:55:29;9.60;99.90
49765;DHT22;35657;51.204;-4.130;2023-04-24T04:57:55;9.60;99.90
49765;DHT22;35657;51.204;-4.130;2023-04-24T05:00:22;9.60;99.90
49765;DHT22;35657;51.204;-4.130;2023-04-24T05:02:50;9.60;99.90
49765;DHT22;35657;51.204;-4.130;2023-04-24T05:05:17;9.60;99.90
49765;DHT22;35657;51.204;-4.130;2023-04-24T05:07:44;9.60;99.90
49765;DHT22;35657;51.204;-4.130;2023-04-24T05:10:10;9.60;99.90
49765;DHT22;35657;51.204;-4.130;2023-04-24T05:12:36;9.60;99.90
49765;DHT22;35657;51.204;-4.130;2023-04-24T05:15:03;9.60;99.90
49765;DHT22;35657;51.204;-4.130;2023-04-24T05:17:29;9.70;99.90
49765;DHT22;35657;51.204;-4.130;2023-04-24T05:19:55;9.80;99.90
49765;DHT22;35657;51.204;-4.130;2023-04-24T05:22:20;9.80;99.90
49765;DHT22;35657;51.204;-4.130;2023-04-24T05:24:47;9.80;99.90
49765;DHT22;35657;51.204;-4.130;2023-04-24T05:27:13;9.80;99.90
49765;DHT22;35657;51.204;-4.130;2023-04-24T05:29:39;9.90;99.90
49765;DHT22;35657;51.204;-4.130;2023-04-24T05:32:06;9.90;99.90
49765;DHT22;35657;51.204;-4.130;2023-04-24T05:34:32;9.90;99.90
49765;DHT22;35657;51.204;-4.130;2023-04-24T05:36:57;10.00;99.90
49765;DHT22;35657;51.204;-4.130;2023-04-24T05:39:23;10.00;99.90
49765;DHT22;35657;51.204;-4.130;2023-04-24T05:41:50;9.90;99.90
49765;DHT22;35657;51.204;-4.130;2023-04-24T05:44:16;9.90;99.90
49765;DHT22;35657;51.204;-4.130;2023-04-24T05:46:42;9.80;99.90
49765;DHT22;35657;51.204;-4.130;2023-04-24T05:49:07;9.80;99.90
49765;DHT22;35657;51.204;-4.130;2023-04-24T05:51:34;9.70;99.90
49765;DHT22;35657;51.204;-4.130;2023-04-24T05:54:00;9.70;99.90
49765;DHT22;35657;51.204;-4.130;2023-04-24T05:56:28;9.70;99.90
49765;DHT22;35657;51.204;-4.130;2023-04-24T05:58:53;9.70;99.90
49765;DHT22;35657;51.204;-4.130;2023-04-24T06:01:19;9.70;99.90
49765;DHT22;35657;51.204;-4.130;2023-04-24T06:03:45;9.70;99.90
49765;DHT22;35657;51.204;-4.130;2023-04-24T06:06:10;9.70;99.90
49765;DHT22;35657;51.204;-4.130;2023-04-24T06:08:36;9.70;99.90
49765;DHT22;35657;51.204;-4.130;2023-04-24T06:11:02;9.70;99.90
49765;DHT22;35657;51.204;-4.130;2023-04-24T06:13:27;9.70;99.90
49765;DHT22;35657;51.204;-4.130;2023-04-24T06:15:53;9.70;99.90
49765;DHT22;35657;51.204;-4.130;2023-04-24T06:18:19;9.70;99.90
49765;DHT22;35657;51.204;-4.130;2023-04-24T06:20:46;9.70;99.90
49765;DHT22;35657;51.204;-4.130;2023-04-24T06:23:11;9.70;99.90
49765;DHT22;35657;51.204;-4.130;2023-04-24T06:25:38;9.70;99.90
49765;DHT22;35657;51.204;-4.130;2023-04-24T06:28:04;9.70;99.90
49765;DHT22;35657;51.204;-4.130;2023-04-24T06:30:30;9.70;99.90
49765;DHT22;35657;51.204;-4.130;2023-04-24T06:32:57;9.80;99.90
49765;DHT22;35657;51.204;-4.130;2023-04-24T06:35:22;9.80;99.90
49765;DHT22;35657;51.204;-4.130;2023-04-24T06:37:48;9.80;99.90
49765;DHT22;35657;51.204;-4.130;2023-04-24T06:40:14;9.80;99.90
49765;DHT22;35657;51.204;-4.130;2023-04-24T06:42:40;9.80;99.90
49765;DHT22;35657;51.204;-4.130;2023-04-24T06:45:06;9.80;99.90
49765;DHT22;35657;51.204;-4.130;2023-04-24T06:47:31;9.80;99.90
49765;DHT22;35657;51.204;-4.130;2023-04-24T06:49:57;9.80;99.90
49765;DHT22;35657;51.204;-4.130;2023-04-24T06:52:23;9.80;99.90
49765;DHT22;35657;51.204;-4.130;2023-04-24T06:54:49;9.80;99.90
49765;DHT22;35657;51.204;-4.130;2023-04-24T06:57:14;9.90;99.90
49765;DHT22;35657;51.204;-4.130;2023-04-24T06:59:41;9.90;99.90
49765;DHT22;35657;51.204;-4.130;2023-04-24T07:02:07;9.90;99.90
49765;DHT22;35657;51.204;-4.130;2023-04-24T07:04:33;9.90;99.90
49765;DHT22;35657;51.204;-4.130;2023-04-24T07:06:59;10.00;99.90
49765;DHT22;35657;51.204;-4.130;2023-04-24T07:09:25;10.00;99.90
49765;DHT22;35657;51.204;-4.130;2023-04-24T07:11:53;10.00;99.90
49765;DHT22;35657;51.204;-4.130;2023-04-24T07:14:21;10.10;99.90
49765;DHT22;35657;51.204;-4.130;2023-04-24T07:16:46;10.10;99.90
49765;DHT22;35657;51.204;-4.130;2023-04-24T07:19:13;10.20;99.90
49765;DHT22;35657;51.204;-4.130;2023-04-24T07:21:39;10.20;99.90
49765;DHT22;35657;51.204;-4.130;2023-04-24T07:24:05;10.30;99.90
49765;DHT22;35657;51.204;-4.130;2023-04-24T07:26:34;10.20;99.90
49765;DHT22;35657;51.204;-4.130;2023-04-24T07:29:00;10.20;99.90
49765;DHT22;35657;51.204;-4.130;2023-04-24T07:31:26;10.20;99.90
49765;DHT22;35657;51.204;-4.130;2023-04-24T07:33:52;10.20;99.90
49765;DHT22;35657;51.204;-4.130;2023-04-24T07:36:18;10.20;99.90
49765;DHT22;35657;51.204;-4.130;2023-04-24T07:38:47;10.20;99.90
49765;DHT22;35657;51.204;-4.130;2023-04-24T07:41:14;10.20;99.90
49765;DHT22;35657;51.204;-4.130;2023-04-24T07:43:41;10.30;99.90
49765;DHT22;35657;51.204;-4.130;2023-04-24T07:46:07;10.30;99.90
49765;DHT22;35657;51.204;-4.130;2023-04-24T07:48:33;10.40;99.90
49765;DHT22;35657;51.204;-4.130;2023-04-24T07:50:59;10.40;99.90
49765;DHT22;35657;51.204;-4.130;2023-04-24T07:53:25;10.40;99.90
49765;DHT22;35657;51.204;-4.130;2023-04-24T07:55:51;10.40;99.90
49765;DHT22;35657;51.204;-4.130;2023-04-24T07:58:16;10.50;99.90
49765;DHT22;35657;51.204;-4.130;2023-04-24T08:00:42;10.50;99.90
49765;DHT22;35657;51.204;-4.130;2023-04-24T08:03:08;10.50;99.90
49765;DHT22;35657;51.204;-4.130;2023-04-24T08:05:34;10.50;99.90
49765;DHT22;35657;51.204;-4.130;2023-04-24T08:08:00;10.60;99.90
49765;DHT22;35657;51.204;-4.130;2023-04-24T08:10:25;10.60;99.90
49765;DHT22;35657;51.204;-4.130;2023-04-24T08:12:51;10.70;99.90
49765;DHT22;35657;51.204;-4.130;2023-04-24T08:15:17;10.70;99.90
49765;DHT22;35657;51.204;-4.130;2023-04-24T08:17:43;10.80;99.90
49765;DHT22;35657;51.204;-4.130;2023-04-24T08:20:10;10.90;99.90
49765;DHT22;35657;51.204;-4.130;2023-04-24T08:22:42;10.90;99.90
49765;DHT22;35657;51.204;-4.130;2023-04-24T08:25:09;10.90;99.90
49765;DHT22;35657;51.204;-4.130;2023-04-24T08:27:36;10.90;99.90
49765;DHT22;35657;51.204;-4.130;2023-04-24T08:30:03;11.00;99.90
49765;DHT22;35657;51.204;-4.130;2023-04-24T08:32:29;11.00;99.90
49765;DHT22;35657;51.204;-4.130;2023-04-24T08:34:56;11.10;99.90
49765;DHT22;35657;51.204;-4.130;2023-04-24T08:37:22;11.10;99.90
49765;DHT22;35657;51.204;-4.130;2023-04-24T08:39:49;11.10;99.90
49765;DHT22;35657;51.204;-4.130;2023-04-24T08:42:16;11.30;99.90
49765;DHT22;35657;51.204;-4.130;2023-04-24T08:44:43;11.30;99.90
49765;DHT22;35657;51.204;-4.130;2023-04-24T08:47:10;11.50;99.90
49765;DHT22;35657;51.204;-4.130;2023-04-24T08:49:37;11.50;99.90
49765;DHT22;35657;51.204;-4.130;2023-04-24T08:52:05;11.60;99.90
49765;DHT22;35657;51.204;-4.130;2023-04-24T08:54:33;11.70;99.90
49765;DHT22;35657;51.204;-4.130;2023-04-24T08:57:00;11.70;99.90
49765;DHT22;35657;51.204;-4.130;2023-04-24T08:59:31;11.80;99.90
49765;DHT22;35657;51.204;-4.130;2023-04-24T09:01:59;11.90;99.90
49765;DHT22;35657;51.204;-4.130;2023-04-24T09:04:25;11.90;99.90
49765;DHT22;35657;51.204;-4.130;2023-04-24T09:06:56;11.80;99.90
49765;DHT22;35657;51.204;-4.130;2023-04-24T09:09:24;11.80;99.90
49765;DHT22;35657;51.204;-4.130;2023-04-24T09:11:51;11.90;99.90
49765;DHT22;35657;51.204;-4.130;2023-04-24T09:14:19;11.90;99.90
49765;DHT22;35657;51.204;-4.130;2023-04-24T09:16:46;12.00;99.90
49765;DHT22;35657;51.204;-4.130;2023-04-24T09:19:12;11.80;99.90
49765;DHT22;35657;51.204;-4.130;2023-04-24T09:21:38;11.60;99.90
49765;DHT22;35657;51.204;-4.130;2023-04-24T09:24:07;11.30;99.90
49765;DHT22;35657;51.204;-4.130;2023-04-24T09:26:36;11.20;99.90
49765;DHT22;35657;51.204;-4.130;2023-04-24T09:29:03;11.50;99.90
49765;DHT22;35657;51.204;-4.130;2023-04-24T09:31:29;11.70;99.90
49765;DHT22;35657;51.204;-4.130;2023-04-24T09:34:00;11.90;99.90
49765;DHT22;35657;51.204;-4.130;2023-04-24T09:36:36;11.90;99.90
49765;DHT22;35657;51.204;-4.130;2023-04-24T09:39:05;11.40;99.90
49765;DHT22;35657;51.204;-4.130;2023-04-24T09:41:32;11.30;99.90
49765;DHT22;35657;51.204;-4.130;2023-04-24T09:44:11;11.20;99.90
49765;DHT22;35657;51.204;-4.130;2023-04-24T09:46:36;10.90;99.90
49765;DHT22;35657;51.204;-4.130;2023-04-24T09:49:15;10.80;99.90
49765;DHT22;35657;51.204;-4.130;2023-04-24T09:51:42;10.60;99.90
49765;DHT22;35657;51.204;-4.130;2023-04-24T09:54:33;10.80;99.90
49765;DHT22;35657;51.204;-4.130;2023-04-24T09:57:02;10.70;99.90
49765;DHT22;35657;51.204;-4.130;2023-04-24T09:59:28;10.80;99.90
49765;DHT22;35657;51.204;-4.130;2023-04-24T10:01:54;10.90;99.90
49765;DHT22;35657;51.204;-4.130;2023-04-24T10:04:25;11.00;99.90
49765;DHT22;35657;51.204;-4.130;2023-04-24T10:06:53;11.00;99.90
49765;DHT22;35657;51.204;-4.130;2023-04-24T10:09:21;11.00;99.90
49765;DHT22;35657;51.204;-4.130;2023-04-24T10:11:51;11.00;99.90
49765;DHT22;35657;51.204;-4.130;2023-04-24T10:14:22;11.00;99.90
49765;DHT22;35657;51.204;-4.130;2023-04-24T10:16:50;11.00;99.90
49765;DHT22;35657;51.204;-4.130;2023-04-24T10:19:18;10.90;99.90
49765;DHT22;35657;51.204;-4.130;2023-04-24T10:21:44;11.00;99.90
49765;DHT22;35657;51.204;-4.130;2023-04-24T10:24:14;11.00;99.90
49765;DHT22;35657;51.204;-4.130;2023-04-24T10:26:41;11.10;99.90
49765;DHT22;35657;51.204;-4.130;2023-04-24T10:29:08;11.20;99.90
49765;DHT22;35657;51.204;-4.130;2023-04-24T10:31:36;11.20;99.90
49765;DHT22;35657;51.204;-4.130;2023-04-24T10:34:05;11.30;99.90
49765;DHT22;35657;51.204;-4.130;2023-04-24T10:36:35;11.30;99.90
49765;DHT22;35657;51.204;-4.130;2023-04-24T10:39:03;11.30;99.90
49765;DHT22;35657;51.204;-4.130;2023-04-24T10:41:37;11.30;99.90
49765;DHT22;35657;51.204;-4.130;2023-04-24T10:44:13;11.20;99.90
49765;DHT22;35657;51.204;-4.130;2023-04-24T10:46:43;11.30;99.90
49765;DHT22;35657;51.204;-4.130;2023-04-24T10:49:10;11.40;99.90
49765;DHT22;35657;51.204;-4.130;2023-04-24T10:51:48;11.40;99.90
49765;DHT22;35657;51.204;-4.130;2023-04-24T10:56:53;11.30;99.90
49765;DHT22;35657;51.204;-4.130;2023-04-24T10:59:27;11.20;99.90
49765;DHT22;35657;51.204;-4.130;2023-04-24T11:01:54;11.20;99.90
49765;DHT22;35657;51.204;-4.130;2023-04-24T11:04:30;11.20;99.90
49765;DHT22;35657;51.204;-4.130;2023-04-24T11:06:57;11.20;99.90
49765;DHT22;35657;51.204;-4.130;2023-04-24T11:09:27;11.20;99.90
49765;DHT22;35657;51.204;-4.130;2023-04-24T11:12:07;11.20;99.90
49765;DHT22;35657;51.204;-4.130;2023-04-24T11:17:31;11.20;99.90
49765;DHT22;35657;51.204;-4.130;2023-04-24T11:20:05;11.20;99.90
49765;DHT22;35657;51.204;-4.130;2023-04-24T11:22:38;11.20;99.90
49765;DHT22;35657;51.204;-4.130;2023-04-24T11:25:08;11.20;99.90
49765;DHT22;35657;51.204;-4.130;2023-04-24T11:28:04;11.20;99.90
49765;DHT22;35657;51.204;-4.130;2023-04-24T11:30:31;11.20;99.90
49765;DHT22;35657;51.204;-4.130;2023-04-24T11:33:02;11.20;99.90
49765;DHT22;35657;51.204;-4.130;2023-04-24T11:35:29;11.20;99.90
49765;DHT22;35657;51.204;-4.130;2023-04-24T11:37:56;11.10;99.90
49765;DHT22;35657;51.204;-4.130;2023-04-24T11:40:22;11.10;99.90
49765;DHT22;35657;51.204;-4.130;2023-04-24T11:42:50;11.10;99.90
49765;DHT22;35657;51.204;-4.130;2023-04-24T11:45:17;11.10;99.90
49765;DHT22;35657;51.204;-4.130;2023-04-24T11:47:44;11.00;99.90
49765;DHT22;35657;51.204;-4.130;2023-04-24T11:50:14;11.00;99.90
49765;DHT22;35657;51.204;-4.130;2023-04-24T11:52:42;11.10;99.90
49765;DHT22;35657;51.204;-4.130;2023-04-24T11:55:23;11.20;99.90
49765;DHT22;35657;51.204;-4.130;2023-04-24T11:57:54;11.20;99.90
49765;DHT22;35657;51.204;-4.130;2023-04-24T12:00:27;11.40;99.90
49765;DHT22;35657;51.204;-4.130;2023-04-24T12:03:10;11.40;99.90
49765;DHT22;35657;51.204;-4.130;2023-04-24T12:05:37;11.70;99.90
49765;DHT22;35657;51.204;-4.130;2023-04-24T12:08:03;11.90;99.90
49765;DHT22;35657;51.204;-4.130;2023-04-24T12:10:30;12.10;99.90
49765;DHT22;35657;51.204;-4.130;2023-04-24T12:12:57;12.10;99.90
49765;DHT22;35657;51.204;-4.130;2023-04-24T12:15:23;12.20;99.90
49765;DHT22;35657;51.204;-4.130;2023-04-24T12:17:51;12.30;99.90
49765;DHT22;35657;51.204;-4.130;2023-04-24T12:20:17;12.40;99.90
49765;DHT22;35657;51.204;-4.130;2023-04-24T12:22:56;12.50;99.90
49765;DHT22;35657;51.204;-4.130;2023-04-24T12:25:24;12.60;99.90
49765;DHT22;35657;51.204;-4.130;2023-04-24T12:28:11;12.60;99.90
49765;DHT22;35657;51.204;-4.130;2023-04-24T12:30:47;12.60;99.90
49765;DHT22;35657;51.204;-4.130;2023-04-24T12:33:18;12.50;99.90
49765;DHT22;35657;51.204;-4.130;2023-04-24T12:35:44;12.10;99.90
49765;DHT22;35657;51.204;-4.130;2023-04-24T12:38:13;12.10;99.90
49765;DHT22;35657;51.204;-4.130;2023-04-24T12:40:40;12.10;99.90
49765;DHT22;35657;51.204;-4.130;2023-04-24T12:43:20;12.20;99.90
49765;DHT22;35657;51.204;-4.130;2023-04-24T12:45:48;12.20;99.90
49765;DHT22;35657;51.204;-4.130;2023-04-24T12:48:14;12.10;99.90
49765;DHT22;35657;51.204;-4.130;2023-04-24T12:50:40;12.20;99.90
49765;DHT22;35657;51.204;-4.130;2023-04-24T12:53:07;12.00;99.90
49765;DHT22;35657;51.204;-4.130;2023-04-24T12:55:34;11.90;99.90
49765;DHT22;35657;51.204;-4.130;2023-04-24T12:57:59;12.00;99.90
49765;DHT22;35657;51.204;-4.130;2023-04-24T13:00:25;12.00;99.90
49765;DHT22;35657;51.204;-4.130;2023-04-24T13:02:51;12.20;99.90
49765;DHT22;35657;51.204;-4.130;2023-04-24T13:05:17;12.40;99.90
49765;DHT22;35657;51.204;-4.130;2023-04-24T13:07:42;12.40;99.90
49765;DHT22;35657;51.204;-4.130;2023-04-24T13:10:08;12.40;99.90
49765;DHT22;35657;51.204;-4.130;2023-04-24T13:12:34;12.30;99.90
49765;DHT22;35657;51.204;-4.130;2023-04-24T13:15:00;12.30;99.90
49765;DHT22;35657;51.204;-4.130;2023-04-24T13:17:26;12.40;99.90
49765;DHT22;35657;51.204;-4.130;2023-04-24T13:19:55;12.50;99.90
49765;DHT22;35657;51.204;-4.130;2023-04-24T13:22:20;12.60;99.90
49765;DHT22;35657;51.204;-4.130;2023-04-24T13:24:46;12.60;99.90
49765;DHT22;35657;51.204;-4.130;2023-04-24T13:27:15;12.60;99.90
49765;DHT22;35657;51.204;-4.130;2023-04-24T13:29:41;12.40;99.90
49765;DHT22;35657;51.204;-4.130;2023-04-24T13:32:07;12.50;99.90
49765;DHT22;35657;51.204;-4.130;2023-04-24T13:34:33;12.60;99.90
49765;DHT22;35657;51.204;-4.130;2023-04-24T13:37:00;12.70;99.90
49765;DHT22;35657;51.204;-4.130;2023-04-24T13:39:29;12.80;99.90
49765;DHT22;35657;51.204;-4.130;2023-04-24T13:41:55;12.90;99.90
49765;DHT22;35657;51.204;-4.130;2023-04-24T13:44:22;12.80;99.90
49765;DHT22;35657;51.204;-4.130;2023-04-24T13:46:52;12.80;99.90
49765;DHT22;35657;51.204;-4.130;2023-04-24T13:49:20;12.80;99.90
49765;DHT22;35657;51.204;-4.130;2023-04-24T13:51:46;13.00;99.90
49765;DHT22;35657;51.204;-4.130;2023-04-24T13:54:11;13.10;99.90
49765;DHT22;35657;51.204;-4.130;2023-04-24T13:56:38;13.20;99.90
49765;DHT22;35657;51.204;-4.130;2023-04-24T13:59:04;13.00;99.90
49765;DHT22;35657;51.204;-4.130;2023-04-24T14:01:30;13.00;99.90
49765;DHT22;35657;51.204;-4.130;2023-04-24T14:03:56;13.20;99.90
49765;DHT22;35657;51.204;-4.130;2023-04-24T14:06:22;13.30;99.90
49765;DHT22;35657;51.204;-4.130;2023-04-24T14:08:49;13.30;99.90
49765;DHT22;35657;51.204;-4.130;2023-04-24T14:11:16;13.40;99.90
49765;DHT22;35657;51.204;-4.130;2023-04-24T14:13:42;13.40;99.90
49765;DHT22;35657;51.204;-4.130;2023-04-24T14:16:08;13.40;99.90
49765;DHT22;35657;51.204;-4.130;2023-04-24T14:18:33;13.30;99.90
49765;DHT22;35657;51.204;-4.130;2023-04-24T14:20:59;13.20;99.90
49765;DHT22;35657;51.204;-4.130;2023-04-24T14:23:26;13.10;99.90
49765;DHT22;35657;51.204;-4.130;2023-04-24T14:25:52;13.10;99.90
49765;DHT22;35657;51.204;-4.130;2023-04-24T14:28:19;13.10;99.90
49765;DHT22;35657;51.204;-4.130;2023-04-24T14:30:46;13.10;99.90
49765;DHT22;35657;51.204;-4.130;2023-04-24T14:33:11;13.00;99.90
49765;DHT22;35657;51.204;-4.130;2023-04-24T14:35:38;13.00;99.90
49765;DHT22;35657;51.204;-4.130;2023-04-24T14:38:05;12.60;99.90
49765;DHT22;35657;51.204;-4.130;2023-04-24T14:40:31;12.70;99.90
49765;DHT22;35657;51.204;-4.130;2023-04-24T14:42:58;12.80;99.90
49765;DHT22;35657;51.204;-4.130;2023-04-24T14:45:24;12.80;99.90
49765;DHT22;35657;51.204;-4.130;2023-04-24T14:47:50;12.90;99.90
49765;DHT22;35657;51.204;-4.130;2023-04-24T14:50:16;13.00;99.90
49765;DHT22;35657;51.204;-4.130;2023-04-24T14:52:42;13.00;99.90
49765;DHT22;35657;51.204;-4.130;2023-04-24T14:55:08;12.80;99.90
49765;DHT22;35657;51.204;-4.130;2023-04-24T14:57:34;12.70;99.90
49765;DHT22;35657;51.204;-4.130;2023-04-24T15:00:05;12.80;99.90
49765;DHT22;35657;51.204;-4.130;2023-04-24T15:02:34;12.80;99.90
49765;DHT22;35657;51.204;-4.130;2023-04-24T15:05:02;12.90;99.90
49765;DHT22;35657;51.204;-4.130;2023-04-24T15:07:28;12.60;99.90
49765;DHT22;35657;51.204;-4.130;2023-04-24T15:09:54;12.40;99.90
49765;DHT22;35657;51.204;-4.130;2023-04-24T15:12:20;12.30;99.90
49765;DHT22;35657;51.204;-4.130;2023-04-24T15:14:46;12.40;99.90
49765;DHT22;35657;51.204;-4.130;2023-04-24T15:17:12;12.50;99.90
49765;DHT22;35657;51.204;-4.130;2023-04-24T15:19:37;12.50;99.90
49765;DHT22;35657;51.204;-4.130;2023-04-24T15:22:03;12.50;99.90
49765;DHT22;35657;51.204;-4.130;2023-04-24T15:24:29;12.50;99.90
49765;DHT22;35657;51.204;-4.130;2023-04-24T15:26:54;12.60;99.90